createdAt,value
2023-05-21T00:00:34.094Z,18.27
2023-05-21T00:02:35.743Z,20.65
2023-05-21T00:04:37.604Z,18.17
2023-05-21T00:06:39.164Z,18.40
2023-05-21T00:08:40.920Z,20.00
2023-05-21T00:10:43.885Z,16.98
2023-05-21T00:12:45.424Z,16.98
2023-05-21T00:14:46.968Z,18.48
2023-05-21T00:16:48.566Z,21.25
2023-05-21T00:18:50.436Z,19.63
2023-05-21T00:20:52.076Z,16.65
2023-05-21T00:22:53.605Z,19.13
2023-05-21T00:24:55.132Z,16.23
2023-05-21T00:26:58.040Z,16.73
2023-05-21T00:28:59.927Z,16.63
2023-05-21T00:31:01.562Z,17.55
2023-05-21T00:33:03.255Z,19.35
2023-05-21T00:35:05.938Z,18.35
2023-05-21T00:37:07.516Z,23.23
2023-05-21T00:39:09.048Z,20.15
2023-05-21T00:41:10.968Z,19.92
2023-05-21T00:43:13.978Z,19.23
2023-05-21T00:45:15.710Z,19.02
2023-05-21T00:47:17.298Z,18.48
2023-05-21T00:49:19.155Z,20.63
2023-05-21T00:51:20.903Z,21.33
2023-05-21T00:53:22.521Z,19.08
2023-05-21T00:55:24.404Z,17.13
2023-05-21T00:57:26.716Z,20.38
2023-05-21T00:59:29.682Z,19.77
2023-05-21T01:01:32.004Z,23.73
2023-05-21T01:03:35.223Z,19.85
2023-05-21T01:05:37.016Z,22.55
2023-05-21T01:07:40.610Z,20.88
2023-05-21T01:09:43.373Z,17.58
2023-05-21T01:11:47.482Z,19.60
2023-05-21T01:13:50.029Z,22.58
2023-05-21T01:15:54.291Z,19.40
2023-05-21T01:17:56.147Z,23.27
2023-05-21T01:19:58.484Z,21.95
2023-05-21T01:22:03.551Z,23.20
2023-05-21T01:24:06.660Z,21.15
2023-05-21T01:26:08.310Z,18.98
2023-05-21T01:28:09.928Z,21.70
2023-05-21T01:30:13.190Z,21.48
2023-05-21T01:32:22.190Z,21.23
2023-05-21T01:34:29.990Z,20.17
2023-05-21T01:36:38.423Z,20.80
2023-05-21T01:38:43.544Z,20.70
2023-05-21T01:40:52.959Z,22.05
2023-05-21T01:42:54.686Z,21.23
2023-05-21T01:44:59.223Z,23.38
2023-05-21T01:47:02.085Z,22.48
2023-05-21T01:49:05.113Z,23.77
2023-05-21T01:51:06.770Z,21.55
2023-05-21T01:53:08.310Z,20.38
2023-05-21T01:55:10.184Z,21.27
2023-05-21T01:57:13.219Z,24.25
2023-05-21T01:59:15.073Z,22.65
2023-05-21T02:01:16.608Z,21.95
2023-05-21T02:03:19.061Z,21.95
2023-05-21T02:05:20.892Z,20.75
2023-05-21T02:07:22.413Z,25.02
2023-05-21T02:09:23.922Z,24.55
2023-05-21T02:11:25.439Z,26.42
2023-05-21T02:13:28.309Z,23.73
2023-05-21T02:15:29.884Z,22.15
2023-05-21T02:17:31.561Z,19.75
2023-05-21T02:19:33.141Z,22.08
2023-05-21T02:21:34.715Z,25.67
2023-05-21T02:23:36.230Z,22.80
2023-05-21T02:25:38.077Z,21.38
2023-05-21T02:27:41.346Z,21.70
2023-05-21T02:29:44.238Z,20.73
2023-05-21T02:31:45.747Z,23.15
2023-05-21T02:33:47.283Z,24.85
2023-05-21T02:35:48.966Z,22.90
2023-05-21T02:37:50.495Z,21.08
2023-05-21T02:39:52.015Z,22.60
2023-05-21T02:41:53.536Z,22.08
2023-05-21T02:43:55.045Z,24.08
2023-05-21T02:45:57.979Z,22.40
2023-05-21T02:47:59.563Z,23.50
2023-05-21T02:50:01.383Z,23.88
2023-05-21T02:52:02.978Z,20.75
2023-05-21T02:54:04.480Z,26.55
2023-05-21T02:56:06.210Z,24.60
2023-05-21T02:58:07.758Z,27.38
2023-05-21T03:00:10.618Z,23.00
2023-05-21T03:02:13.692Z,24.33
2023-05-21T03:04:15.284Z,22.90
2023-05-21T03:06:16.833Z,26.92
2023-05-21T03:08:18.340Z,23.73
2023-05-21T03:10:19.892Z,26.58
2023-05-21T03:12:21.438Z,22.23
2023-05-21T03:14:22.970Z,22.17
2023-05-21T03:16:24.586Z,27.92
2023-05-21T03:18:27.509Z,23.85
2023-05-21T03:20:29.235Z,25.92
2023-05-21T03:22:30.830Z,22.55
2023-05-21T03:24:32.408Z,24.23
2023-05-21T03:26:33.940Z,26.15
2023-05-21T03:28:35.642Z,23.17
2023-05-21T03:30:37.165Z,23.92
2023-05-21T03:32:38.824Z,23.33
2023-05-21T03:34:41.726Z,23.10
2023-05-21T03:36:43.357Z,23.75
2023-05-21T03:38:44.953Z,24.17
2023-05-21T03:40:46.584Z,21.60
2023-05-21T03:42:48.268Z,22.95
2023-05-21T03:44:49.808Z,22.45
2023-05-21T03:46:51.317Z,23.88
2023-05-21T03:48:52.812Z,22.55
2023-05-21T03:50:55.920Z,23.42
2023-05-21T03:52:57.620Z,22.60
2023-05-21T03:54:59.139Z,22.90
2023-05-21T03:57:00.675Z,28.02
2023-05-21T03:59:02.309Z,24.83
2023-05-21T04:01:04.135Z,27.17
2023-05-21T04:03:05.856Z,27.05
2023-05-21T04:05:08.260Z,24.55
2023-05-21T04:07:11.133Z,23.75
2023-05-21T04:09:12.650Z,24.42
2023-05-21T04:11:14.224Z,21.85
2023-05-21T04:13:15.735Z,27.20
2023-05-21T04:15:17.247Z,26.23
2023-05-21T04:17:18.794Z,25.92
2023-05-21T04:19:20.386Z,24.95
2023-05-21T04:21:22.008Z,25.20
2023-05-21T04:23:24.906Z,27.75
2023-05-21T04:25:26.474Z,29.77
2023-05-21T04:27:28.014Z,24.88
2023-05-21T04:29:29.687Z,22.77
2023-05-21T04:31:31.416Z,23.88
2023-05-21T04:33:32.981Z,25.75
2023-05-21T04:35:34.750Z,23.38
2023-05-21T04:37:36.400Z,27.02
2023-05-21T04:39:39.306Z,23.85
2023-05-21T04:41:40.853Z,23.67
2023-05-21T04:43:42.366Z,24.48
2023-05-21T04:45:43.877Z,28.17
2023-05-21T04:47:45.424Z,26.67
2023-05-21T04:49:47.131Z,24.27
2023-05-21T04:51:48.675Z,25.40
2023-05-21T04:53:51.415Z,22.40
2023-05-21T04:55:54.295Z,25.77
2023-05-21T04:57:55.814Z,24.77
2023-05-21T04:59:57.328Z,25.23
2023-05-21T05:01:58.907Z,23.85
2023-05-21T05:04:00.575Z,23.08
2023-05-21T05:06:02.164Z,26.33
2023-05-21T05:08:03.908Z,24.45
2023-05-21T05:10:06.310Z,20.92
2023-05-21T05:12:09.349Z,25.58
2023-05-21T05:14:10.844Z,27.10
2023-05-21T05:16:12.416Z,22.70
2023-05-21T05:18:14.868Z,26.48
2023-05-21T05:20:16.521Z,23.48
2023-05-21T05:22:18.033Z,24.25
2023-05-21T05:24:19.605Z,22.60
2023-05-21T05:26:21.171Z,22.88
2023-05-21T05:28:24.077Z,24.05
2023-05-21T05:30:25.642Z,22.92
2023-05-21T05:32:27.214Z,22.85
2023-05-21T05:34:28.817Z,23.95
2023-05-21T05:36:30.411Z,24.05
2023-05-21T05:38:31.923Z,21.88
2023-05-21T05:40:33.437Z,26.33
2023-05-21T05:42:35.027Z,24.15
2023-05-21T05:44:37.945Z,23.25
2023-05-21T05:46:39.590Z,22.30
2023-05-21T05:48:41.215Z,24.02
2023-05-21T05:50:42.846Z,22.52
2023-05-21T05:52:44.376Z,23.33
2023-05-21T05:54:45.954Z,23.38
2023-05-21T05:56:47.507Z,21.75
2023-05-21T05:58:49.008Z,24.10
2023-05-21T06:00:52.078Z,24.67
2023-05-21T06:02:53.709Z,25.45
2023-05-21T06:04:55.330Z,23.98
2023-05-21T06:06:57.156Z,25.45
2023-05-21T06:08:58.662Z,23.75
2023-05-21T06:11:00.198Z,26.42
2023-05-21T06:13:01.877Z,24.45
2023-05-21T06:15:04.041Z,26.40
2023-05-21T06:17:06.906Z,26.88
2023-05-21T06:19:08.506Z,26.05
2023-05-21T06:21:10.069Z,21.35
2023-05-21T06:23:11.700Z,23.58
2023-05-21T06:25:13.244Z,24.83
2023-05-21T06:27:14.948Z,20.83
2023-05-21T06:29:16.473Z,26.27
2023-05-21T06:31:18.084Z,26.92
2023-05-21T06:33:21.015Z,25.13
2023-05-21T06:35:22.740Z,22.60
2023-05-21T06:37:26.432Z,23.92
2023-05-21T06:39:28.225Z,23.02
2023-05-21T06:41:29.781Z,23.02
2023-05-21T06:43:31.290Z,22.10
2023-05-21T06:45:32.808Z,28.85
2023-05-21T06:47:34.417Z,24.55
2023-05-21T06:49:37.335Z,20.95
2023-05-21T06:51:38.874Z,23.70
2023-05-21T06:53:40.576Z,23.00
2023-05-21T06:55:42.185Z,21.77
2023-05-21T06:57:43.705Z,23.60
2023-05-21T06:59:45.238Z,23.38
2023-05-21T07:01:46.832Z,23.50
2023-05-21T07:03:48.534Z,22.48
2023-05-21T07:05:51.467Z,19.55
2023-05-21T07:07:52.992Z,21.08
2023-05-21T07:09:54.496Z,20.02
2023-05-21T07:11:56.069Z,17.15
2023-05-21T07:13:58.863Z,19.83
2023-05-21T07:16:00.382Z,20.00
2023-05-21T07:18:01.992Z,18.65
2023-05-21T07:20:03.774Z,18.35
2023-05-21T07:22:06.717Z,21.70
2023-05-21T07:24:08.246Z,20.30
2023-05-21T07:26:10.265Z,18.35
2023-05-21T07:28:11.812Z,16.95
2023-05-21T07:30:14.214Z,19.77
2023-05-21T07:32:15.903Z,18.70
2023-05-21T07:34:17.529Z,20.80
2023-05-21T07:36:19.115Z,17.20
2023-05-21T07:38:22.019Z,19.33
2023-05-21T07:40:23.562Z,17.08
2023-05-21T07:42:25.727Z,17.48
2023-05-21T07:44:27.268Z,18.33
2023-05-21T07:46:28.814Z,19.83
2023-05-21T07:48:30.367Z,18.80
2023-05-21T07:50:31.935Z,17.20
2023-05-21T07:52:33.572Z,19.10
2023-05-21T07:54:36.525Z,16.23
2023-05-21T07:56:38.062Z,17.98
2023-05-21T07:58:39.629Z,17.83
2023-05-21T08:00:42.983Z,17.77
2023-05-21T08:02:45.041Z,16.70
2023-05-21T08:04:46.787Z,18.13
2023-05-21T08:06:48.466Z,16.38
2023-05-21T08:08:50.096Z,17.40
2023-05-21T08:10:53.004Z,18.80
2023-05-21T08:12:54.616Z,16.73
2023-05-21T08:14:57.332Z,16.48
2023-05-21T08:16:58.862Z,16.38
2023-05-21T08:19:00.551Z,18.38
2023-05-21T08:21:02.149Z,15.65
2023-05-21T08:23:03.681Z,15.90
2023-05-21T08:25:05.964Z,16.75
2023-05-21T08:27:08.848Z,19.17
2023-05-21T08:29:10.470Z,18.83
2023-05-21T08:31:12.108Z,13.80
2023-05-21T08:33:13.645Z,16.08
2023-05-21T08:35:15.325Z,14.68
2023-05-21T08:37:16.927Z,13.73
2023-05-21T08:39:18.477Z,18.17
2023-05-21T08:41:21.288Z,14.00
2023-05-21T08:43:27.059Z,16.48
2023-05-21T08:45:34.502Z,16.52
2023-05-21T08:47:36.468Z,16.33
2023-05-21T08:49:38.168Z,15.77
2023-05-21T08:51:39.796Z,12.70
2023-05-21T08:53:41.540Z,17.77
2023-05-21T08:55:43.492Z,14.05
2023-05-21T08:57:45.014Z,13.93
2023-05-21T08:59:47.873Z,14.15
2023-05-21T09:01:49.600Z,14.90
2023-05-21T09:03:54.414Z,12.98
2023-05-21T09:05:59.225Z,15.73
2023-05-21T09:08:06.102Z,15.90
2023-05-21T09:10:12.090Z,15.23
2023-05-21T09:12:13.711Z,13.10
2023-05-21T09:14:16.738Z,13.80
2023-05-21T09:16:19.688Z,12.52
2023-05-21T09:18:21.192Z,12.32
2023-05-21T09:20:25.101Z,11.80
2023-05-21T09:22:27.578Z,13.02
2023-05-21T09:24:32.505Z,14.27
2023-05-21T09:26:35.231Z,12.88
2023-05-21T09:28:36.787Z,14.20
2023-05-21T09:30:44.380Z,12.68
2023-05-21T09:32:54.586Z,13.95
2023-05-21T09:34:56.159Z,12.75
2023-05-21T09:36:57.732Z,15.23
2023-05-21T09:38:59.489Z,14.65
2023-05-21T09:41:04.818Z,14.35
2023-05-21T09:43:06.337Z,14.90
2023-05-21T09:45:09.406Z,14.18
2023-05-21T09:47:10.948Z,14.45
2023-05-21T09:49:24.165Z,15.02
2023-05-21T09:51:25.715Z,14.45
2023-05-21T09:53:29.035Z,14.52
2023-05-21T09:55:30.551Z,14.57
2023-05-21T09:57:32.161Z,16.20
2023-05-21T09:59:37.218Z,14.10
2023-05-21T10:01:38.856Z,13.52
2023-05-21T10:03:42.598Z,15.90
2023-05-21T10:05:45.541Z,14.18
2023-05-21T10:07:50.239Z,14.85
2023-05-21T10:09:54.344Z,13.50
2023-05-21T10:11:57.319Z,12.23
2023-05-21T10:14:04.597Z,14.13
2023-05-21T10:16:06.549Z,13.40
2023-05-21T10:18:10.124Z,13.70
2023-05-21T10:20:12.428Z,14.15
2023-05-21T10:22:15.591Z,15.75
2023-05-21T10:24:17.742Z,17.15
2023-05-21T10:26:19.751Z,16.52
2023-05-21T10:28:23.865Z,13.73
2023-05-21T10:30:25.559Z,15.45
2023-05-21T10:32:28.201Z,14.90
2023-05-21T10:34:31.202Z,14.57
2023-05-21T10:36:34.189Z,16.13
2023-05-21T10:38:38.376Z,15.32
2023-05-21T10:40:40.149Z,15.27
2023-05-21T10:43:21.768Z,15.50
2023-05-21T10:45:33.343Z,15.25
2023-05-21T10:47:47.928Z,14.68
2023-05-21T10:50:05.455Z,11.35
2023-05-21T10:52:19.202Z,13.38
2023-05-21T10:54:53.281Z,13.57
2023-05-21T10:57:04.627Z,13.32
2023-05-21T10:59:20.365Z,12.52
2023-05-21T11:01:22.561Z,12.77
2023-05-21T11:03:25.239Z,13.43
2023-05-21T11:05:39.319Z,14.38
2023-05-21T11:07:52.060Z,14.48
2023-05-21T11:09:53.602Z,14.35
2023-05-21T11:11:58.978Z,15.68
2023-05-21T11:14:00.534Z,14.35
2023-05-21T11:16:14.212Z,16.92
2023-05-21T11:18:15.754Z,14.07
2023-05-21T11:20:17.277Z,16.27
2023-05-21T11:22:23.697Z,16.63
2023-05-21T11:24:25.444Z,13.25
2023-05-21T11:26:28.505Z,20.33
2023-05-21T11:28:34.332Z,14.07
2023-05-21T11:30:36.389Z,13.73
2023-05-21T11:32:39.028Z,12.50
2023-05-21T11:34:42.549Z,12.55
2023-05-21T11:36:45.548Z,13.07
2023-05-21T11:39:08.635Z,13.48
2023-05-21T11:41:10.202Z,12.85
2023-05-21T11:43:11.741Z,11.68
2023-05-21T11:45:17.601Z,13.43
2023-05-21T11:47:19.838Z,14.45
2023-05-21T11:49:22.330Z,12.95
2023-05-21T11:51:24.721Z,12.65
2023-05-21T11:53:29.330Z,13.15
2023-05-21T11:55:30.906Z,12.85
2023-05-21T11:57:32.636Z,10.88
2023-05-21T11:59:34.301Z,12.85
2023-05-21T12:01:37.149Z,12.80
2023-05-21T12:03:38.917Z,11.55
2023-05-21T12:05:44.788Z,11.10
2023-05-21T12:07:47.501Z,12.32
2023-05-21T12:09:50.243Z,15.85
2023-05-21T12:11:53.093Z,11.02
2023-05-21T12:13:54.701Z,12.20
2023-05-21T12:15:56.371Z,10.35
2023-05-21T12:17:59.388Z,13.68
2023-05-21T12:20:01.203Z,12.18
2023-05-21T12:22:02.934Z,11.20
2023-05-21T12:24:04.736Z,11.50
2023-05-21T12:26:06.402Z,10.63
2023-05-21T12:28:07.938Z,10.45
2023-05-21T12:30:09.851Z,14.93
2023-05-21T12:32:13.763Z,11.48
2023-05-21T12:34:36.692Z,9.55
2023-05-21T12:36:38.313Z,12.65
2023-05-21T12:38:39.853Z,13.93
2023-05-21T12:40:41.620Z,10.70
2023-05-21T12:42:44.068Z,17.17
2023-05-21T12:44:47.155Z,12.48
2023-05-21T12:46:48.755Z,13.38
2023-05-21T12:48:52.762Z,12.35
2023-05-21T12:50:58.478Z,10.30
2023-05-21T12:53:00.253Z,10.80
2023-05-21T12:55:01.801Z,11.55
2023-05-21T12:57:07.805Z,12.50
2023-05-21T12:59:13.165Z,10.32
2023-05-21T13:01:14.765Z,10.27
2023-05-21T13:03:16.405Z,10.35
2023-05-21T13:05:18.624Z,11.95
2023-05-21T13:07:21.624Z,11.13
2023-05-21T13:09:23.191Z,12.52
2023-05-21T13:11:24.736Z,10.68
2023-05-21T13:13:26.245Z,10.43
2023-05-21T13:15:27.786Z,11.65
2023-05-21T13:17:29.839Z,9.63
2023-05-21T13:19:31.413Z,10.45
2023-05-21T13:21:33.000Z,10.57
2023-05-21T13:23:35.891Z,10.60
2023-05-21T13:25:37.421Z,11.40
2023-05-21T13:27:39.109Z,12.57
2023-05-21T13:29:40.635Z,13.90
2023-05-21T13:31:42.570Z,11.25
2023-05-21T13:33:44.135Z,10.65
2023-05-21T13:35:45.726Z,9.52
2023-05-21T13:37:47.296Z,10.35
2023-05-21T13:39:50.191Z,10.73
2023-05-21T13:41:51.768Z,11.52
2023-05-21T13:43:53.320Z,12.48
2023-05-21T13:45:55.066Z,11.20
2023-05-21T13:47:56.719Z,10.60
2023-05-21T13:49:58.403Z,10.43
2023-05-21T13:52:00.152Z,8.90
2023-05-21T13:54:01.758Z,9.52
2023-05-21T13:56:05.318Z,10.45
2023-05-21T13:58:06.856Z,8.70
2023-05-21T14:00:09.437Z,11.10
2023-05-21T14:02:11.405Z,11.95
2023-05-21T14:04:12.974Z,9.32
2023-05-21T14:06:14.545Z,8.25
2023-05-21T14:08:16.125Z,8.00
2023-05-21T14:10:17.672Z,9.73
2023-05-21T14:12:20.560Z,10.20
2023-05-21T14:14:22.360Z,9.88
2023-05-21T14:16:24.127Z,9.02
2023-05-21T14:18:25.697Z,8.60
2023-05-21T14:20:27.243Z,9.52
2023-05-21T14:22:28.777Z,9.90
2023-05-21T14:24:30.323Z,8.75
2023-05-21T14:26:31.895Z,9.63
2023-05-21T14:28:34.819Z,9.90
2023-05-21T14:30:36.383Z,10.35
2023-05-21T14:32:37.974Z,9.43
2023-05-21T14:34:39.587Z,9.52
2023-05-21T14:36:41.129Z,8.80
2023-05-21T14:38:42.863Z,10.30
2023-05-21T14:40:44.652Z,10.73
2023-05-21T14:42:46.273Z,10.40
2023-05-21T14:44:49.287Z,9.00
2023-05-21T14:46:50.870Z,10.23
2023-05-21T14:48:52.397Z,9.85
2023-05-21T14:50:54.080Z,8.50
2023-05-21T14:52:55.598Z,12.27
2023-05-21T14:54:57.100Z,8.90
2023-05-21T14:56:58.641Z,8.45
2023-05-21T14:59:00.170Z,9.00
2023-05-21T15:01:03.440Z,10.15
2023-05-21T15:07:08.356Z,9.63
2023-05-21T15:09:09.893Z,10.95
2023-05-21T15:11:11.501Z,16.60
2023-05-21T15:13:13.165Z,9.05
2023-05-21T15:15:14.684Z,9.38
2023-05-21T15:17:17.549Z,8.50
2023-05-21T15:19:19.161Z,9.40
2023-05-21T15:21:20.751Z,9.48
2023-05-21T15:23:22.292Z,8.57
2023-05-21T15:25:23.893Z,9.25
2023-05-21T15:27:25.677Z,8.82
2023-05-21T15:29:27.222Z,8.98
2023-05-21T15:31:28.728Z,10.55
2023-05-21T15:33:31.745Z,7.95
2023-05-21T15:35:36.472Z,9.95
2023-05-21T15:37:38.426Z,10.02
2023-05-21T15:39:39.927Z,9.30
2023-05-21T15:41:42.012Z,9.05
2023-05-21T15:43:43.608Z,9.82
2023-05-21T15:45:45.180Z,9.93
2023-05-21T15:47:46.769Z,8.55
2023-05-21T15:49:49.690Z,6.30
2023-05-21T15:51:51.296Z,8.20
2023-05-21T15:53:52.834Z,7.32
2023-05-21T15:55:54.404Z,7.68
2023-05-21T15:57:55.909Z,8.20
2023-05-21T15:59:57.441Z,6.05
2023-05-21T16:01:59.058Z,6.57
2023-05-21T16:04:01.316Z,6.63
2023-05-21T16:06:04.344Z,4.95
2023-05-21T16:08:05.870Z,5.80
2023-05-21T16:10:09.644Z,5.63
2023-05-21T16:12:11.173Z,8.68
2023-05-21T16:14:12.732Z,7.78
2023-05-21T16:16:14.378Z,7.03
2023-05-21T16:18:15.906Z,8.63
2023-05-21T16:20:17.586Z,7.70
2023-05-21T16:22:20.472Z,7.10
2023-05-21T16:24:22.003Z,8.18
2023-05-21T16:26:23.588Z,8.77
2023-05-21T16:28:25.280Z,9.48
2023-05-21T16:30:26.832Z,6.43
2023-05-21T16:32:28.568Z,5.80
2023-05-21T16:34:30.456Z,4.80
2023-05-21T16:36:32.068Z,5.30
2023-05-21T16:38:34.939Z,7.55
2023-05-21T16:40:36.540Z,5.55
2023-05-21T16:42:38.139Z,5.80
2023-05-21T16:44:39.698Z,5.32
2023-05-21T16:46:41.338Z,8.10
2023-05-21T16:48:42.909Z,6.30
2023-05-21T16:50:44.492Z,5.18
2023-05-21T16:52:46.056Z,6.80
2023-05-21T16:54:48.971Z,5.53
2023-05-21T16:56:50.508Z,6.18
2023-05-21T16:58:52.062Z,5.63
2023-05-21T17:00:53.587Z,5.90
2023-05-21T17:02:55.358Z,6.93
2023-05-21T17:04:57.072Z,5.63
2023-05-21T17:06:58.608Z,7.78
2023-05-21T17:09:00.147Z,7.50
2023-05-21T17:11:03.088Z,8.65
2023-05-21T17:13:17.720Z,9.48
2023-05-21T17:15:23.495Z,9.00
2023-05-21T17:17:25.100Z,11.65
2023-05-21T17:19:26.730Z,9.00
2023-05-21T17:21:28.295Z,9.35
2023-05-21T17:23:29.822Z,10.13
2023-05-21T17:25:34.202Z,9.38
2023-05-21T17:27:37.369Z,9.88
2023-05-21T17:29:39.095Z,9.68
2023-05-21T17:31:40.823Z,12.13
2023-05-21T17:33:42.415Z,11.35
2023-05-21T17:35:44.101Z,10.48
2023-05-21T17:37:45.693Z,10.40
2023-05-21T17:39:47.242Z,11.13
2023-05-21T17:41:48.806Z,13.40
2023-05-21T17:43:51.782Z,12.15
2023-05-21T17:45:53.312Z,15.60
2023-05-21T17:47:56.642Z,11.48
2023-05-21T17:49:59.578Z,11.82
2023-05-21T17:52:01.152Z,13.20
2023-05-21T17:54:02.836Z,8.77
2023-05-21T17:56:04.982Z,10.73
2023-05-21T17:58:06.722Z,10.57
2023-05-21T18:00:10.590Z,8.90
2023-05-21T18:02:12.485Z,10.02
2023-05-21T18:04:14.046Z,9.52
2023-05-21T18:06:15.613Z,10.48
2023-05-21T18:08:17.181Z,10.15
2023-05-21T18:10:18.748Z,9.48
2023-05-21T18:12:20.326Z,9.90
2023-05-21T18:14:21.847Z,14.05
2023-05-21T18:16:24.752Z,11.15
2023-05-21T18:18:26.418Z,10.57
2023-05-21T18:20:27.936Z,12.98
2023-05-21T18:22:29.474Z,9.98
2023-05-21T18:24:30.997Z,11.15
2023-05-21T18:26:32.600Z,11.27
2023-05-21T18:28:35.225Z,10.75
2023-05-21T18:30:37.099Z,11.10
2023-05-21T18:32:40.213Z,10.82
2023-05-21T18:34:41.792Z,9.90
2023-05-21T18:36:43.355Z,12.60
2023-05-21T18:38:44.999Z,12.30
2023-05-21T18:40:46.590Z,11.65
2023-05-21T18:42:48.482Z,13.60
2023-05-21T18:44:50.745Z,11.82
2023-05-21T18:46:53.798Z,11.25
2023-05-21T18:48:58.959Z,10.93
2023-05-21T18:51:00.531Z,11.15
2023-05-21T18:53:02.210Z,11.18
2023-05-21T18:55:04.346Z,10.70
2023-05-21T18:57:06.163Z,13.35
2023-05-21T18:59:07.745Z,13.40
2023-05-21T19:01:09.433Z,10.52
2023-05-21T19:03:11.119Z,12.27
2023-05-21T19:05:14.089Z,11.20
2023-05-21T19:07:15.736Z,12.13
2023-05-21T19:09:17.277Z,16.25
2023-05-21T19:11:19.082Z,17.95
2023-05-21T19:13:20.657Z,13.98
2023-05-21T19:15:22.216Z,13.10
2023-05-21T19:17:23.818Z,17.25
2023-05-21T19:19:25.449Z,14.32
2023-05-21T19:21:28.511Z,10.18
2023-05-21T19:23:33.797Z,13.45
2023-05-21T19:25:42.928Z,11.25
2023-05-21T19:27:44.666Z,13.95
2023-05-21T19:29:46.299Z,13.45
2023-05-21T19:31:47.868Z,11.23
2023-05-21T19:33:49.566Z,12.95
2023-05-21T19:35:51.254Z,12.65
2023-05-21T19:37:54.175Z,15.10
2023-05-21T19:39:56.196Z,15.25
2023-05-21T19:41:57.735Z,19.20
2023-05-21T19:43:59.267Z,19.60
2023-05-21T19:46:00.846Z,17.63
2023-05-21T19:48:02.661Z,19.65
2023-05-21T19:50:04.986Z,13.95
2023-05-21T19:52:06.687Z,16.05
2023-05-21T19:54:09.646Z,18.05
2023-05-21T19:56:11.170Z,14.27
2023-05-21T19:58:12.714Z,15.73
2023-05-21T20:00:15.231Z,21.88
2023-05-21T20:02:16.824Z,17.75
2023-05-21T20:04:18.460Z,17.23
2023-05-21T20:06:20.246Z,14.73
2023-05-21T20:08:21.820Z,12.23
2023-05-21T20:10:24.729Z,14.65
2023-05-21T20:12:26.460Z,11.02
2023-05-21T20:14:28.022Z,11.88
2023-05-21T20:16:29.574Z,14.48
2023-05-21T20:18:31.095Z,13.40
2023-05-21T20:20:35.699Z,13.30
2023-05-21T20:22:37.309Z,13.95
2023-05-21T20:24:38.844Z,11.85
2023-05-21T20:26:41.795Z,13.68
2023-05-21T20:28:43.498Z,13.63
2023-05-21T20:30:55.662Z,13.48
2023-05-21T20:32:57.235Z,12.98
2023-05-21T20:35:03.251Z,12.25
2023-05-21T20:37:05.834Z,13.57
2023-05-21T20:39:07.386Z,13.15
2023-05-21T20:41:08.942Z,12.88
2023-05-21T20:43:11.824Z,12.40
2023-05-21T20:45:13.361Z,12.68
2023-05-21T20:47:14.887Z,11.15
2023-05-21T20:49:16.422Z,14.55
2023-05-21T20:51:17.972Z,12.57
2023-05-21T20:53:19.461Z,13.45
2023-05-21T20:55:21.019Z,12.98
2023-05-21T20:57:22.565Z,11.93
2023-05-21T20:59:25.865Z,13.65
2023-05-21T21:01:28.277Z,15.32
2023-05-21T21:03:31.162Z,17.63
2023-05-21T21:05:32.722Z,17.48
2023-05-21T21:07:35.409Z,14.40
2023-05-21T21:09:36.968Z,15.00
2023-05-21T21:11:38.521Z,11.15
2023-05-21T21:13:40.126Z,12.13
2023-05-21T21:15:43.035Z,17.38
2023-05-21T21:17:44.692Z,13.80
2023-05-21T21:19:46.260Z,12.65
2023-05-21T21:21:47.849Z,13.98
2023-05-21T21:23:49.332Z,13.82
2023-05-21T21:25:50.900Z,14.25
2023-05-21T21:27:52.437Z,11.77
2023-05-21T21:29:54.020Z,12.55
2023-05-21T21:31:57.175Z,14.45
2023-05-21T21:33:58.754Z,14.43
2023-05-21T21:36:00.401Z,13.32
2023-05-21T21:38:02.896Z,13.90
2023-05-21T21:40:05.686Z,14.27
2023-05-21T21:42:07.478Z,14.25
2023-05-21T21:44:09.045Z,16.95
2023-05-21T21:46:10.625Z,13.73
2023-05-21T21:48:13.599Z,13.52
2023-05-21T21:50:15.219Z,14.23
2023-05-21T21:52:17.629Z,13.35
2023-05-21T21:54:19.193Z,14.50
2023-05-21T21:56:20.701Z,14.30
2023-05-21T21:58:22.514Z,15.85
2023-05-21T22:00:24.288Z,12.57
2023-05-21T22:02:25.870Z,14.68
2023-05-21T22:04:28.878Z,12.45
2023-05-21T22:06:30.438Z,15.35
2023-05-21T22:08:32.002Z,14.75
2023-05-21T22:10:33.658Z,15.88
2023-05-21T22:12:35.199Z,12.45
2023-05-21T22:14:36.860Z,13.85
2023-05-21T22:16:38.444Z,14.68
2023-05-21T22:18:41.003Z,14.10
2023-05-21T22:20:44.662Z,13.82
2023-05-21T22:22:46.215Z,16.48
2023-05-21T22:24:47.730Z,13.35
2023-05-21T22:26:49.301Z,15.65
2023-05-21T22:28:50.941Z,13.35
2023-05-21T22:30:52.486Z,13.25
2023-05-21T22:32:54.146Z,14.77
2023-05-21T22:34:55.718Z,17.65
2023-05-21T22:36:58.618Z,15.32
2023-05-21T22:39:00.159Z,14.65
2023-05-21T22:41:01.751Z,12.90
2023-05-21T22:43:03.401Z,16.63
2023-05-21T22:45:05.837Z,14.68
2023-05-21T22:47:07.392Z,13.95
2023-05-21T22:49:08.974Z,15.23
2023-05-21T22:51:10.520Z,16.17
2023-05-21T22:53:13.663Z,15.27
2023-05-21T22:55:16.204Z,15.63
2023-05-21T22:57:18.132Z,12.40
2023-05-21T22:59:19.652Z,14.63
2023-05-21T23:01:21.284Z,13.05
2023-05-21T23:03:22.897Z,14.20
2023-05-21T23:05:24.513Z,14.23
2023-05-21T23:07:26.118Z,14.93
2023-05-21T23:09:29.014Z,19.17
2023-05-21T23:11:30.647Z,15.07
2023-05-21T23:13:32.213Z,15.93
2023-05-21T23:15:33.808Z,15.80
2023-05-21T23:17:35.432Z,16.52
2023-05-21T23:19:37.023Z,15.10
2023-05-21T23:21:38.594Z,15.20
2023-05-21T23:23:40.112Z,13.73
2023-05-21T23:25:43.083Z,14.18
2023-05-21T23:27:44.646Z,12.95
2023-05-21T23:29:46.164Z,15.85
2023-05-21T23:31:47.871Z,16.45
2023-05-21T23:33:49.867Z,14.57
2023-05-21T23:35:51.399Z,16.45
2023-05-21T23:37:52.923Z,15.98
2023-05-21T23:39:54.435Z,19.50
2023-05-21T23:41:57.363Z,15.77
2023-05-21T23:43:58.864Z,16.05
2023-05-21T23:46:00.463Z,13.07
2023-05-21T23:48:02.049Z,16.65
2023-05-21T23:50:04.102Z,14.88
2023-05-21T23:52:06.846Z,14.68
2023-05-21T23:54:08.398Z,13.38
2023-05-21T23:56:09.930Z,14.90
2023-05-21T23:58:12.801Z,17.88
